CheckWX is a tool to help pilots better visualize weather data.  It is not intended as a substitute for an official pre-flight weather briefing.

05:21:26 UTC

DAON METAR
Zenata – Messali El Hadj Airport
Tlemcen, Algeria
Current

21 mins ago

DAON 200500Z 00000KT 5000 SCT010 SCT026 08/07 Q1020
Observed
Feb-20 @ 05:00 UTC
Visibility
5,005 meters
Flight Rules
MVFR
Cloud Levels
  • Scattered at 1,000' AGL
  • Scattered at 2,600' AGL
Temperature
C / 46°F
Dewpoint
C / 45°F
Humidity
93%
Altimeter
30.12" Hg
Pressure
1019.92 hPa
Previous

51 mins ago

DAON 200430Z 00000KT 5000 SCT010 SCT026 08/07 Q1020
Observed
Feb-20 @ 04:30 UTC
Visibility
5,005 meters
Flight Rules
MVFR
Cloud Levels
  • Scattered at 1,000' AGL
  • Scattered at 2,600' AGL
Temperature
C / 46°F
Dewpoint
C / 45°F
Humidity
93%
Altimeter
30.12" Hg
Pressure
1019.92 hPa
Previous

1 hour ago

DAON 200400Z 00000KT 5000 SCT010 SCT026 08/08 Q1020
Observed
Feb-20 @ 04:00 UTC
Visibility
5,005 meters
Flight Rules
MVFR
Cloud Levels
  • Scattered at 1,000' AGL
  • Scattered at 2,600' AGL
Temperature
C / 46°F
Dewpoint
C / 46°F
Humidity
100%
Altimeter
30.12" Hg
Pressure
1019.92 hPa